sensor_id;sensor_type;location;lat;lon;timestamp;pressure;altitude;pressure_sealevel;temperature;humidity
79709;BME280;69203;48.964;9.118;2023-04-24T00:00:50;97868.03;;;11.08;76.16
79709;BME280;69203;48.964;9.118;2023-04-24T00:01:52;97861.00;;;11.09;75.31
79709;BME280;69203;48.964;9.118;2023-04-24T00:02:53;97871.66;;;11.17;75.54
79709;BME280;69203;48.964;9.118;2023-04-24T00:03:57;97866.94;;;11.11;74.50
79709;BME280;69203;48.964;9.118;2023-04-24T00:04:59;97871.25;;;11.21;74.34
79709;BME280;69203;48.964;9.118;2023-04-24T00:06:02;97870.75;;;11.27;74.37
79709;BME280;69203;48.964;9.118;2023-04-24T00:07:03;97869.06;;;11.26;75.03
79709;BME280;69203;48.964;9.118;2023-04-24T00:08:03;97870.06;;;11.25;74.65
79709;BME280;69203;48.964;9.118;2023-04-24T00:09:04;97871.44;;;11.29;74.92
79709;BME280;69203;48.964;9.118;2023-04-24T00:10:05;97874.63;;;11.33;74.78
79709;BME280;69203;48.964;9.118;2023-04-24T00:11:06;97870.41;;;11.41;74.27
79709;BME280;69203;48.964;9.118;2023-04-24T00:12:06;97869.69;;;11.39;74.47
79709;BME280;69203;48.964;9.118;2023-04-24T00:13:07;97871.78;;;11.36;73.89
79709;BME280;69203;48.964;9.118;2023-04-24T00:14:07;97869.38;;;11.33;74.44
79709;BME280;69203;48.964;9.118;2023-04-24T00:15:08;97868.13;;;11.27;74.79
79709;BME280;69203;48.964;9.118;2023-04-24T00:16:09;97864.09;;;11.23;74.69
79709;BME280;69203;48.964;9.118;2023-04-24T00:17:09;97864.50;;;11.19;74.77
79709;BME280;69203;48.964;9.118;2023-04-24T00:18:09;97870.00;;;11.16;74.88
79709;BME280;69203;48.964;9.118;2023-04-24T00:19:10;97874.19;;;11.28;74.67
79709;BME280;69203;48.964;9.118;2023-04-24T00:20:11;97873.09;;;11.21;74.47
79709;BME280;69203;48.964;9.118;2023-04-24T00:21:11;97869.06;;;11.26;74.63
79709;BME280;69203;48.964;9.118;2023-04-24T00:22:12;97876.41;;;11.23;74.71
79709;BME280;69203;48.964;9.118;2023-04-24T00:23:13;97873.88;;;11.21;73.97
79709;BME280;69203;48.964;9.118;2023-04-24T00:24:13;97885.13;;;11.23;74.40
79709;BME280;69203;48.964;9.118;2023-04-24T00:25:14;97882.09;;;11.28;74.75
79709;BME280;69203;48.964;9.118;2023-04-24T00:26:14;97878.91;;;11.24;74.61
79709;BME280;69203;48.964;9.118;2023-04-24T00:27:15;97884.69;;;11.18;74.53
79709;BME280;69203;48.964;9.118;2023-04-24T00:28:15;97879.69;;;11.15;75.07
79709;BME280;69203;48.964;9.118;2023-04-24T00:29:15;97870.19;;;11.24;73.96
79709;BME280;69203;48.964;9.118;2023-04-24T00:30:16;97874.41;;;11.36;73.72
79709;BME280;69203;48.964;9.118;2023-04-24T00:31:16;97867.47;;;11.35;74.35
79709;BME280;69203;48.964;9.118;2023-04-24T00:32:17;97867.91;;;11.40;73.57
79709;BME280;69203;48.964;9.118;2023-04-24T00:33:17;97874.00;;;11.40;73.19
79709;BME280;69203;48.964;9.118;2023-04-24T00:34:18;97874.44;;;11.46;74.60
79709;BME280;69203;48.964;9.118;2023-04-24T00:35:18;97880.53;;;11.56;72.87
79709;BME280;69203;48.964;9.118;2023-04-24T00:36:20;97875.69;;;11.51;73.56
79709;BME280;69203;48.964;9.118;2023-04-24T00:37:20;97875.66;;;11.41;73.45
79709;BME280;69203;48.964;9.118;2023-04-24T00:38:21;97872.75;;;11.44;73.76
79709;BME280;69203;48.964;9.118;2023-04-24T00:39:22;97869.03;;;11.47;73.80
79709;BME280;69203;48.964;9.118;2023-04-24T00:40:23;97876.47;;;11.42;73.65
79709;BME280;69203;48.964;9.118;2023-04-24T00:41:24;97876.47;;;11.42;73.51
79709;BME280;69203;48.964;9.118;2023-04-24T00:42:25;97866.34;;;11.37;73.41
79709;BME280;69203;48.964;9.118;2023-04-24T00:43:25;97879.81;;;11.44;73.73
79709;BME280;69203;48.964;9.118;2023-04-24T00:44:26;97873.19;;;11.50;73.22
79709;BME280;69203;48.964;9.118;2023-04-24T00:45:26;97877.09;;;11.55;72.96
79709;BME280;69203;48.964;9.118;2023-04-24T00:46:27;97874.16;;;11.49;73.45
79709;BME280;69203;48.964;9.118;2023-04-24T00:47:28;97873.72;;;11.43;73.22
79709;BME280;69203;48.964;9.118;2023-04-24T00:48:29;97876.53;;;11.52;73.41
79709;BME280;69203;48.964;9.118;2023-04-24T00:49:31;97874.56;;;11.54;73.25
79709;BME280;69203;48.964;9.118;2023-04-24T00:50:32;97865.72;;;11.55;72.70
79709;BME280;69203;48.964;9.118;2023-04-24T00:51:33;97860.88;;;11.50;72.97
79709;BME280;69203;48.964;9.118;2023-04-24T00:52:34;97862.41;;;11.53;72.81
79709;BME280;69203;48.964;9.118;2023-04-24T00:53:35;97856.88;;;11.56;72.96
79709;BME280;69203;48.964;9.118;2023-04-24T00:54:36;97857.00;;;11.54;72.12
79709;BME280;69203;48.964;9.118;2023-04-24T00:55:36;97856.06;;;11.65;72.72
79709;BME280;69203;48.964;9.118;2023-04-24T00:56:37;97861.88;;;11.59;72.74
79709;BME280;69203;48.964;9.118;2023-04-24T00:57:38;97864.78;;;11.56;72.43
79709;BME280;69203;48.964;9.118;2023-04-24T00:58:38;97858.97;;;11.52;72.20
79709;BME280;69203;48.964;9.118;2023-04-24T00:59:40;97866.56;;;11.55;72.90
79709;BME280;69203;48.964;9.118;2023-04-24T01:00:41;97850.81;;;11.55;72.22
79709;BME280;69203;48.964;9.118;2023-04-24T01:01:41;97857.88;;;11.64;72.57
79709;BME280;69203;48.964;9.118;2023-04-24T01:02:44;97852.91;;;11.61;72.16
79709;BME280;69203;48.964;9.118;2023-04-24T01:03:45;97858.03;;;11.63;72.58
79709;BME280;69203;48.964;9.118;2023-04-24T01:04:45;97848.47;;;11.62;71.91
79709;BME280;69203;48.964;9.118;2023-04-24T01:05:46;97855.16;;;11.75;71.61
79709;BME280;69203;48.964;9.118;2023-04-24T01:06:48;97846.44;;;11.75;70.92
79709;BME280;69203;48.964;9.118;2023-04-24T01:07:50;97846.31;;;11.76;71.24
79709;BME280;69203;48.964;9.118;2023-04-24T01:08:51;97851.16;;;11.81;71.42
79709;BME280;69203;48.964;9.118;2023-04-24T01:09:51;97842.88;;;11.85;70.90
79709;BME280;69203;48.964;9.118;2023-04-24T01:10:52;97844.13;;;11.81;71.68
79709;BME280;69203;48.964;9.118;2023-04-24T01:11:53;97843.16;;;11.82;71.15
79709;BME280;69203;48.964;9.118;2023-04-24T01:12:54;97832.63;;;11.82;70.87
79709;BME280;69203;48.964;9.118;2023-04-24T01:13:54;97840.50;;;11.73;71.24
79709;BME280;69203;48.964;9.118;2023-04-24T01:14:55;97845.16;;;11.69;71.60
79709;BME280;69203;48.964;9.118;2023-04-24T01:15:57;97835.19;;;11.63;71.38
79709;BME280;69203;48.964;9.118;2023-04-24T01:16:57;97848.91;;;11.67;71.56
79709;BME280;69203;48.964;9.118;2023-04-24T01:17:58;97841.56;;;11.70;71.74
79709;BME280;69203;48.964;9.118;2023-04-24T01:18:59;97837.97;;;11.71;71.71
79709;BME280;69203;48.964;9.118;2023-04-24T01:20:01;97839.38;;;11.75;70.84
79709;BME280;69203;48.964;9.118;2023-04-24T01:21:07;97840.19;;;11.66;71.51
79709;BME280;69203;48.964;9.118;2023-04-24T01:22:10;97844.88;;;11.63;71.74
79709;BME280;69203;48.964;9.118;2023-04-24T01:23:11;97837.13;;;11.61;71.62
79709;BME280;69203;48.964;9.118;2023-04-24T01:24:12;97845.00;;;11.61;71.75
79709;BME280;69203;48.964;9.118;2023-04-24T01:25:13;97841.84;;;11.67;70.76
79709;BME280;69203;48.964;9.118;2023-04-24T01:26:16;97840.88;;;11.68;71.11
79709;BME280;69203;48.964;9.118;2023-04-24T01:27:17;97833.22;;;11.56;71.15
79709;BME280;69203;48.964;9.118;2023-04-24T01:28:18;97835.59;;;11.59;71.30
79709;BME280;69203;48.964;9.118;2023-04-24T01:29:19;97827.84;;;11.57;71.07
79709;BME280;69203;48.964;9.118;2023-04-24T01:30:19;97832.09;;;11.49;71.54
79709;BME280;69203;48.964;9.118;2023-04-24T01:31:21;97828.09;;;11.44;71.81
79709;BME280;69203;48.964;9.118;2023-04-24T01:32:22;97819.06;;;11.37;71.88
79709;BME280;69203;48.964;9.118;2023-04-24T01:33:22;97828.06;;;11.35;71.96
79709;BME280;69203;48.964;9.118;2023-04-24T01:34:23;97827.53;;;11.41;72.05
79709;BME280;69203;48.964;9.118;2023-04-24T01:35:23;97824.03;;;11.31;72.29
79709;BME280;69203;48.964;9.118;2023-04-24T01:36:25;97832.16;;;11.28;72.98
79709;BME280;69203;48.964;9.118;2023-04-24T01:37:27;97833.53;;;11.22;72.90
79709;BME280;69203;48.964;9.118;2023-04-24T01:38:27;97835.59;;;11.19;72.65
79709;BME280;69203;48.964;9.118;2023-04-24T01:39:28;97835.75;;;11.27;72.81
79709;BME280;69203;48.964;9.118;2023-04-24T01:40:30;97822.78;;;11.25;72.90
79709;BME280;69203;48.964;9.118;2023-04-24T01:41:30;97823.28;;;11.19;72.37
79709;BME280;69203;48.964;9.118;2023-04-24T01:42:31;97829.06;;;11.13;73.05
79709;BME280;69203;48.964;9.118;2023-04-24T01:43:32;97823.69;;;11.15;73.32
79709;BME280;69203;48.964;9.118;2023-04-24T01:44:33;97827.00;;;11.17;72.61
79709;BME280;69203;48.964;9.118;2023-04-24T01:45:33;97819.28;;;11.15;73.11
79709;BME280;69203;48.964;9.118;2023-04-24T01:46:34;97831.00;;;11.11;72.89
79709;BME280;69203;48.964;9.118;2023-04-24T01:47:36;97826.84;;;11.09;73.46
79709;BME280;69203;48.964;9.118;2023-04-24T01:48:36;97828.88;;;11.05;73.79
79709;BME280;69203;48.964;9.118;2023-04-24T01:49:38;97816.16;;;11.00;73.33
79709;BME280;69203;48.964;9.118;2023-04-24T01:50:39;97820.72;;;10.98;73.87
79709;BME280;69203;48.964;9.118;2023-04-24T01:51:39;97822.50;;;10.98;73.74
79709;BME280;69203;48.964;9.118;2023-04-24T01:52:40;97822.75;;;10.95;73.81
79709;BME280;69203;48.964;9.118;2023-04-24T01:53:40;97815.59;;;10.97;73.63
79709;BME280;69203;48.964;9.118;2023-04-24T01:54:41;97823.47;;;10.97;73.90
79709;BME280;69203;48.964;9.118;2023-04-24T01:55:41;97823.03;;;10.92;73.52
79709;BME280;69203;48.964;9.118;2023-04-24T01:56:42;97816.78;;;10.83;74.07
79709;BME280;69203;48.964;9.118;2023-04-24T01:57:44;97813.03;;;10.86;73.83
79709;BME280;69203;48.964;9.118;2023-04-24T01:58:44;97820.09;;;10.85;74.22
79709;BME280;69203;48.964;9.118;2023-04-24T01:59:45;97820.59;;;10.79;73.85
79709;BME280;69203;48.964;9.118;2023-04-24T02:00:46;97824.22;;;10.78;74.19
79709;BME280;69203;48.964;9.118;2023-04-24T02:01:47;97823.44;;;10.87;73.91
79709;BME280;69203;48.964;9.118;2023-04-24T02:02:47;97813.31;;;10.83;74.34
79709;BME280;69203;48.964;9.118;2023-04-24T02:03:47;97822.47;;;10.88;74.15
79709;BME280;69203;48.964;9.118;2023-04-24T02:04:48;97820.75;;;10.78;74.41
79709;BME280;69203;48.964;9.118;2023-04-24T02:05:48;97823.94;;;10.81;74.41
79709;BME280;69203;48.964;9.118;2023-04-24T02:06:48;97822.41;;;10.79;74.14
79709;BME280;69203;48.964;9.118;2023-04-24T02:07:49;97816.84;;;10.72;74.44
79709;BME280;69203;48.964;9.118;2023-04-24T02:08:49;97809.66;;;10.74;74.91
79709;BME280;69203;48.964;9.118;2023-04-24T02:09:49;97818.81;;;10.80;74.43
79709;BME280;69203;48.964;9.118;2023-04-24T02:10:51;97816.91;;;10.82;74.15
79709;BME280;69203;48.964;9.118;2023-04-24T02:11:52;97817.22;;;10.88;74.15
79709;BME280;69203;48.964;9.118;2023-04-24T02:12:52;97819.44;;;10.93;74.25
79709;BME280;69203;48.964;9.118;2023-04-24T02:13:53;97820.69;;;10.89;74.69
79709;BME280;69203;48.964;9.118;2023-04-24T02:14:53;97816.94;;;10.91;74.53
79709;BME280;69203;48.964;9.118;2023-04-24T02:15:53;97821.13;;;10.94;74.65
79709;BME280;69203;48.964;9.118;2023-04-24T02:16:54;97816.81;;;10.93;74.79
79709;BME280;69203;48.964;9.118;2023-04-24T02:17:54;97816.88;;;11.02;74.17
79709;BME280;69203;48.964;9.118;2023-04-24T02:18:55;97815.91;;;11.04;74.37
79709;BME280;69203;48.964;9.118;2023-04-24T02:19:55;97813.13;;;11.05;74.32
79709;BME280;69203;48.964;9.118;2023-04-24T02:20:56;97826.56;;;11.12;73.95
79709;BME280;69203;48.964;9.118;2023-04-24T02:21:56;97821.91;;;11.15;73.96
79709;BME280;69203;48.964;9.118;2023-04-24T02:22:57;97821.63;;;11.18;73.82
79709;BME280;69203;48.964;9.118;2023-04-24T02:23:57;97832.41;;;11.15;73.93
79709;BME280;69203;48.964;9.118;2023-04-24T02:24:57;97824.13;;;11.20;73.67
79709;BME280;69203;48.964;9.118;2023-04-24T02:25:58;97831.50;;;11.26;73.97
79709;BME280;69203;48.964;9.118;2023-04-24T02:26:58;97829.41;;;11.29;74.47
79709;BME280;69203;48.964;9.118;2023-04-24T02:27:59;97825.16;;;11.38;73.10
79709;BME280;69203;48.964;9.118;2023-04-24T02:28:59;97825.44;;;11.35;74.80
79709;BME280;69203;48.964;9.118;2023-04-24T02:30:00;97830.13;;;11.31;74.18
79709;BME280;69203;48.964;9.118;2023-04-24T02:31:00;97838.81;;;11.32;74.54
79709;BME280;69203;48.964;9.118;2023-04-24T02:32:01;97840.47;;;11.33;74.95
79709;BME280;69203;48.964;9.118;2023-04-24T02:33:01;97832.88;;;11.30;75.16
79709;BME280;69203;48.964;9.118;2023-04-24T02:34:02;97835.06;;;11.25;75.19
79709;BME280;69203;48.964;9.118;2023-04-24T02:35:02;97839.63;;;11.23;75.32
79709;BME280;69203;48.964;9.118;2023-04-24T02:36:03;97825.50;;;11.14;75.36
79709;BME280;69203;48.964;9.118;2023-04-24T02:37:03;97835.69;;;11.08;76.25
79709;BME280;69203;48.964;9.118;2023-04-24T02:38:04;97834.72;;;11.09;76.18
79709;BME280;69203;48.964;9.118;2023-04-24T02:39:04;97824.66;;;11.14;75.94
79709;BME280;69203;48.964;9.118;2023-04-24T02:40:05;97827.84;;;11.17;75.99
79709;BME280;69203;48.964;9.118;2023-04-24T02:41:06;97825.50;;;11.14;76.32
79709;BME280;69203;48.964;9.118;2023-04-24T02:42:06;97823.38;;;11.08;76.92
79709;BME280;69203;48.964;9.118;2023-04-24T02:43:08;97827.09;;;11.06;76.85
79709;BME280;69203;48.964;9.118;2023-04-24T02:44:08;97828.75;;;11.07;76.64
79709;BME280;69203;48.964;9.118;2023-04-24T02:45:09;97838.72;;;11.03;76.53
79709;BME280;69203;48.964;9.118;2023-04-24T02:46:10;97823.53;;;10.86;77.10
79709;BME280;69203;48.964;9.118;2023-04-24T02:47:10;97831.31;;;10.87;76.83
79709;BME280;69203;48.964;9.118;2023-04-24T02:48:12;97834.25;;;10.94;77.01
79709;BME280;69203;48.964;9.118;2023-04-24T02:49:12;97824.75;;;11.02;76.85
79709;BME280;69203;48.964;9.118;2023-04-24T02:50:12;97825.31;;;11.06;77.24
79709;BME280;69203;48.964;9.118;2023-04-24T02:51:13;97816.59;;;11.06;75.92
79709;BME280;69203;48.964;9.118;2023-04-24T02:52:13;97815.19;;;11.01;76.42
79709;BME280;69203;48.964;9.118;2023-04-24T02:53:15;97819.09;;;11.07;76.75
79709;BME280;69203;48.964;9.118;2023-04-24T02:54:15;97817.81;;;11.01;76.46
79709;BME280;69203;48.964;9.118;2023-04-24T02:55:16;97822.06;;;10.93;77.02
79709;BME280;69203;48.964;9.118;2023-04-24T02:56:16;97825.50;;;10.84;77.96
79709;BME280;69203;48.964;9.118;2023-04-24T02:57:17;97822.03;;;10.83;77.74
79709;BME280;69203;48.964;9.118;2023-04-24T02:58:17;97812.16;;;10.76;77.91
79709;BME280;69203;48.964;9.118;2023-04-24T02:59:20;97825.72;;;10.81;78.06
79709;BME280;69203;48.964;9.118;2023-04-24T03:00:20;97819.53;;;10.82;78.15
79709;BME280;69203;48.964;9.118;2023-04-24T03:01:20;97821.66;;;10.67;79.10
79709;BME280;69203;48.964;9.118;2023-04-24T03:02:22;97824.97;;;10.69;78.47
79709;BME280;69203;48.964;9.118;2023-04-24T03:03:23;97828.09;;;10.63;78.86
79709;BME280;69203;48.964;9.118;2023-04-24T03:04:24;97824.34;;;10.56;79.39
79709;BME280;69203;48.964;9.118;2023-04-24T03:05:26;97822.16;;;10.61;79.00
79709;BME280;69203;48.964;9.118;2023-04-24T03:06:27;97810.56;;;10.64;79.52
79709;BME280;69203;48.964;9.118;2023-04-24T03:07:28;97819.88;;;10.68;79.26
79709;BME280;69203;48.964;9.118;2023-04-24T03:08:29;97817.25;;;10.68;78.50
79709;BME280;69203;48.964;9.118;2023-04-24T03:09:30;97813.69;;;10.57;78.60
79709;BME280;69203;48.964;9.118;2023-04-24T03:10:30;97817.03;;;10.59;79.13
79709;BME280;69203;48.964;9.118;2023-04-24T03:11:32;97810.56;;;10.64;78.84
79709;BME280;69203;48.964;9.118;2023-04-24T03:12:32;97813.84;;;10.56;79.31
79709;BME280;69203;48.964;9.118;2023-04-24T03:13:33;97810.91;;;10.49;79.19
79709;BME280;69203;48.964;9.118;2023-04-24T03:14:34;97806.59;;;10.48;79.69
79709;BME280;69203;48.964;9.118;2023-04-24T03:15:35;97811.97;;;10.47;79.70
79709;BME280;69203;48.964;9.118;2023-04-24T03:16:35;97821.66;;;10.46;79.29
79709;BME280;69203;48.964;9.118;2023-04-24T03:17:35;97818.31;;;10.44;79.94
79709;BME280;69203;48.964;9.118;2023-04-24T03:18:36;97823.97;;;10.40;79.85
79709;BME280;69203;48.964;9.118;2023-04-24T03:19:37;97814.34;;;10.29;79.93
79709;BME280;69203;48.964;9.118;2023-04-24T03:20:37;97814.94;;;10.33;80.21
79709;BME280;69203;48.964;9.118;2023-04-24T03:21:38;97803.03;;;10.29;79.98
79709;BME280;69203;48.964;9.118;2023-04-24T03:22:40;97817.63;;;10.42;79.13
79709;BME280;69203;48.964;9.118;2023-04-24T03:23:41;97819.50;;;10.51;78.94
79709;BME280;69203;48.964;9.118;2023-04-24T03:24:41;97811.34;;;10.54;79.41
79709;BME280;69203;48.964;9.118;2023-04-24T03:25:41;97813.84;;;10.56;79.29
79709;BME280;69203;48.964;9.118;2023-04-24T03:26:42;97809.28;;;10.58;79.39
79709;BME280;69203;48.964;9.118;2023-04-24T03:27:43;97809.16;;;10.59;79.02
79709;BME280;69203;48.964;9.118;2023-04-24T03:28:43;97811.00;;;10.69;78.42
79709;BME280;69203;48.964;9.118;2023-04-24T03:29:44;97813.56;;;10.80;78.21
79709;BME280;69203;48.964;9.118;2023-04-24T03:30:44;97806.09;;;10.75;78.84
79709;BME280;69203;48.964;9.118;2023-04-24T03:31:44;97805.84;;;10.78;78.62
79709;BME280;69203;48.964;9.118;2023-04-24T03:32:45;97810.50;;;10.75;78.91
79709;BME280;69203;48.964;9.118;2023-04-24T03:33:45;97805.84;;;10.78;79.03
79709;BME280;69203;48.964;9.118;2023-04-24T03:34:45;97813.72;;;10.78;78.29
79709;BME280;69203;48.964;9.118;2023-04-24T03:35:46;97804.28;;;10.76;78.72
79709;BME280;69203;48.964;9.118;2023-04-24T03:36:46;97809.53;;;10.76;78.58
79709;BME280;69203;48.964;9.118;2023-04-24T03:37:49;97809.41;;;10.77;78.89
79709;BME280;69203;48.964;9.118;2023-04-24T03:38:50;97812.44;;;10.73;79.08
79709;BME280;69203;48.964;9.118;2023-04-24T03:39:50;97810.50;;;10.75;78.67
79709;BME280;69203;48.964;9.118;2023-04-24T03:40:50;97816.47;;;10.77;79.26
79709;BME280;69203;48.964;9.118;2023-04-24T03:41:52;97813.84;;;10.77;78.84
79709;BME280;69203;48.964;9.118;2023-04-24T03:42:52;97816.63;;;10.85;78.46
79709;BME280;69203;48.964;9.118;2023-04-24T03:43:53;97812.72;;;10.79;78.84
79709;BME280;69203;48.964;9.118;2023-04-24T03:44:53;97818.06;;;10.89;78.74
79709;BME280;69203;48.964;9.118;2023-04-24T03:45:54;97816.66;;;10.94;78.31
79709;BME280;69203;48.964;9.118;2023-04-24T03:46:54;97819.25;;;10.85;78.76
79709;BME280;69203;48.964;9.118;2023-04-24T03:47:54;97814.16;;;10.83;79.00
79709;BME280;69203;48.964;9.118;2023-04-24T03:48:55;97815.66;;;10.86;79.19
79709;BME280;69203;48.964;9.118;2023-04-24T03:49:57;97821.56;;;10.99;78.62
79709;BME280;69203;48.964;9.118;2023-04-24T03:50:57;97828.31;;;11.01;78.13
79709;BME280;69203;48.964;9.118;2023-04-24T03:51:58;97826.41;;;11.04;78.80
79709;BME280;69203;48.964;9.118;2023-04-24T03:52:58;97832.34;;;11.06;78.67
79709;BME280;69203;48.964;9.118;2023-04-24T03:53:58;97828.25;;;11.13;78.72
79709;BME280;69203;48.964;9.118;2023-04-24T03:54:59;97824.19;;;10.99;79.83
79709;BME280;69203;48.964;9.118;2023-04-24T03:55:59;97831.91;;;11.00;80.08
79709;BME280;69203;48.964;9.118;2023-04-24T03:57:01;97833.41;;;10.93;80.22
79709;BME280;69203;48.964;9.118;2023-04-24T03:58:01;97836.78;;;10.84;81.53
79709;BME280;69203;48.964;9.118;2023-04-24T03:59:02;97838.84;;;10.81;81.58
79709;BME280;69203;48.964;9.118;2023-04-24T04:00:03;97837.97;;;10.71;82.24
79709;BME280;69203;48.964;9.118;2023-04-24T04:01:05;97842.91;;;10.64;82.97
79709;BME280;69203;48.964;9.118;2023-04-24T04:02:06;97850.38;;;10.69;82.76
79709;BME280;69203;48.964;9.118;2023-04-24T04:03:07;97862.63;;;10.58;83.46
79709;BME280;69203;48.964;9.118;2023-04-24T04:04:07;97865.25;;;10.58;83.53
79709;BME280;69203;48.964;9.118;2023-04-24T04:05:08;97874.59;;;10.51;84.10
79709;BME280;69203;48.964;9.118;2023-04-24T04:06:08;97866.56;;;10.32;84.25
79709;BME280;69203;48.964;9.118;2023-04-24T04:07:11;97872.69;;;10.22;84.98
79709;BME280;69203;48.964;9.118;2023-04-24T04:08:12;97889.25;;;10.11;85.73
79709;BME280;69203;48.964;9.118;2023-04-24T04:09:13;97886.81;;;9.98;86.08
79709;BME280;69203;48.964;9.118;2023-04-24T04:10:13;97892.56;;;9.81;85.93
79709;BME280;69203;48.964;9.118;2023-04-24T04:11:14;97881.16;;;9.60;86.46
79709;BME280;69203;48.964;9.118;2023-04-24T04:12:14;97887.25;;;9.49;87.05
79709;BME280;69203;48.964;9.118;2023-04-24T04:13:15;97886.75;;;9.33;86.54
79709;BME280;69203;48.964;9.118;2023-04-24T04:14:15;97901.78;;;9.20;86.83
79709;BME280;69203;48.964;9.118;2023-04-24T04:15:15;97901.16;;;9.05;87.10
79709;BME280;69203;48.964;9.118;2023-04-24T04:16:16;97891.63;;;8.93;87.50
79709;BME280;69203;48.964;9.118;2023-04-24T04:17:19;97888.84;;;8.83;88.02
79709;BME280;69203;48.964;9.118;2023-04-24T04:18:20;97898.13;;;8.76;87.71
79709;BME280;69203;48.964;9.118;2023-04-24T04:19:20;97906.66;;;8.67;88.33
79709;BME280;69203;48.964;9.118;2023-04-24T04:20:21;97895.69;;;8.62;88.23
79709;BME280;69203;48.964;9.118;2023-04-24T04:21:21;97900.44;;;8.57;89.32
79709;BME280;69203;48.964;9.118;2023-04-24T04:22:21;97896.50;;;8.52;89.41
79709;BME280;69203;48.964;9.118;2023-04-24T04:23:22;97903.53;;;8.51;89.91
79709;BME280;69203;48.964;9.118;2023-04-24T04:24:24;97899.34;;;8.48;89.74
79709;BME280;69203;48.964;9.118;2023-04-24T04:25:26;97893.88;;;8.52;90.33
79709;BME280;69203;48.964;9.118;2023-04-24T04:26:27;97894.84;;;8.51;89.64
79709;BME280;69203;48.964;9.118;2023-04-24T04:27:27;97888.88;;;8.48;90.80
79709;BME280;69203;48.964;9.118;2023-04-24T04:28:29;97889.94;;;8.46;91.04
79709;BME280;69203;48.964;9.118;2023-04-24T04:29:31;97901.72;;;8.52;90.07
79709;BME280;69203;48.964;9.118;2023-04-24T04:30:32;97903.66;;;8.50;90.57
79709;BME280;69203;48.964;9.118;2023-04-24T04:31:32;97904.84;;;8.57;91.11
79709;BME280;69203;48.964;9.118;2023-04-24T04:32:33;97909.13;;;8.58;90.36
79709;BME280;69203;48.964;9.118;2023-04-24T04:33:35;97908.06;;;8.60;90.45
79709;BME280;69203;48.964;9.118;2023-04-24T04:34:38;97912.38;;;8.61;89.80
79709;BME280;69203;48.964;9.118;2023-04-24T04:35:40;97902.22;;;8.57;90.10
79709;BME280;69203;48.964;9.118;2023-04-24T04:36:41;97922.09;;;8.59;90.01
79709;BME280;69203;48.964;9.118;2023-04-24T04:37:41;97923.53;;;8.63;91.28
79709;BME280;69203;48.964;9.118;2023-04-24T04:38:42;97915.81;;;8.62;90.80
79709;BME280;69203;48.964;9.118;2023-04-24T04:39:43;97919.13;;;8.64;90.18
79709;BME280;69203;48.964;9.118;2023-04-24T04:40:44;97915.69;;;8.63;90.01
79709;BME280;69203;48.964;9.118;2023-04-24T04:41:44;97926.63;;;8.68;90.15
79709;BME280;69203;48.964;9.118;2023-04-24T04:42:46;97917.47;;;8.63;90.04
79709;BME280;69203;48.964;9.118;2023-04-24T04:43:47;97926.28;;;8.73;89.40
79709;BME280;69203;48.964;9.118;2023-04-24T04:44:48;97926.19;;;8.74;90.58
79709;BME280;69203;48.964;9.118;2023-04-24T04:45:48;97922.63;;;8.75;89.75
79709;BME280;69203;48.964;9.118;2023-04-24T04:46:49;97919.78;;;8.78;89.39
79709;BME280;69203;48.964;9.118;2023-04-24T04:47:50;97924.41;;;8.75;89.02
79709;BME280;69203;48.964;9.118;2023-04-24T04:48:50;97927.03;;;8.75;90.08
79709;BME280;69203;48.964;9.118;2023-04-24T04:49:51;97923.47;;;8.76;89.87
79709;BME280;69203;48.964;9.118;2023-04-24T04:50:53;97924.78;;;8.81;89.11
79709;BME280;69203;48.964;9.118;2023-04-24T04:51:53;97910.13;;;8.79;89.43
79709;BME280;69203;48.964;9.118;2023-04-24T04:52:54;97916.59;;;8.86;89.21
79709;BME280;69203;48.964;9.118;2023-04-24T04:53:55;97929.28;;;8.79;88.83
79709;BME280;69203;48.964;9.118;2023-04-24T04:54:55;97926.69;;;8.79;89.82
79709;BME280;69203;48.964;9.118;2023-04-24T04:55:57;97928.00;;;8.85;89.39
79709;BME280;69203;48.964;9.118;2023-04-24T04:56:58;97936.44;;;8.88;88.98
79709;BME280;69203;48.964;9.118;2023-04-24T04:57:59;97943.16;;;8.93;89.19
79709;BME280;69203;48.964;9.118;2023-04-24T04:59:00;97944.69;;;8.95;88.35
79709;BME280;69203;48.964;9.118;2023-04-24T05:00:00;97932.19;;;8.87;88.90
79709;BME280;69203;48.964;9.118;2023-04-24T05:01:01;97934.81;;;8.87;89.33
79709;BME280;69203;48.964;9.118;2023-04-24T05:02:02;97934.81;;;8.87;88.90
79709;BME280;69203;48.964;9.118;2023-04-24T05:03:02;97940.16;;;8.86;88.59
79709;BME280;69203;48.964;9.118;2023-04-24T05:04:04;97941.69;;;8.88;89.26
79709;BME280;69203;48.964;9.118;2023-04-24T05:05:06;97938.91;;;8.79;88.34
79709;BME280;69203;48.964;9.118;2023-04-24T05:06:06;97944.66;;;8.84;88.83
79709;BME280;69203;48.964;9.118;2023-04-24T05:07:07;97954.91;;;8.87;89.33
79709;BME280;69203;48.964;9.118;2023-04-24T05:08:08;97963.09;;;8.82;88.81
79709;BME280;69203;48.964;9.118;2023-04-24T05:09:08;97948.78;;;8.75;88.22
79709;BME280;69203;48.964;9.118;2023-04-24T05:10:09;97963.28;;;8.68;88.73
79709;BME280;69203;48.964;9.118;2023-04-24T05:11:09;97963.06;;;8.71;88.66
79709;BME280;69203;48.964;9.118;2023-04-24T05:12:10;97969.25;;;8.70;88.87
79709;BME280;69203;48.964;9.118;2023-04-24T05:13:10;97968.84;;;8.64;88.70
79709;BME280;69203;48.964;9.118;2023-04-24T05:14:11;97975.31;;;8.71;89.05
79709;BME280;69203;48.964;9.118;2023-04-24T05:15:12;97984.34;;;8.78;88.65
79709;BME280;69203;48.964;9.118;2023-04-24T05:16:13;97979.59;;;8.83;88.90
79709;BME280;69203;48.964;9.118;2023-04-24T05:17:13;97987.81;;;8.78;89.10
79709;BME280;69203;48.964;9.118;2023-04-24T05:18:13;97980.13;;;8.88;88.19
79709;BME280;69203;48.964;9.118;2023-04-24T05:19:15;97982.13;;;8.84;89.29
79709;BME280;69203;48.964;9.118;2023-04-24T05:20:16;97982.50;;;8.91;88.85
79709;BME280;69203;48.964;9.118;2023-04-24T05:21:19;97983.00;;;8.96;88.99
79709;BME280;69203;48.964;9.118;2023-04-24T05:22:19;97992.66;;;9.07;88.50
79709;BME280;69203;48.964;9.118;2023-04-24T05:23:21;97994.44;;;9.06;88.25